Time;durP1;ratioP1;P1;durP2;ratioP2;P2;SDS_P1;SDS_P2;PMS_P1;PMS_P2;Temp;Humidity;BMP_temperature;BMP_pressure;BME280_temperature;BME280_humidity;BME280_pressure;Samples;Min_cycle;Max_cycle;Signal;HPM_P1;HPM_P2
2023/12/25 00:01:53;;;;;;;18.75;7.95;;;;;;;;;;5052304;28;20051;-55
2023/12/25 00:04:19;;;;;;;20.90;8.38;;;;;;;;;;5055045;28;20723;-52
2023/12/25 00:06:44;;;;;;;20.45;7.65;;;;;;;;;;5053475;28;20169;-54
2023/12/25 00:09:09;;;;;;;23.63;8.10;;;;;;;;;;5052268;28;20276;-53
2023/12/25 00:11:34;;;;;;;18.38;8.70;;;;;;;;;;5037400;28;20028;-55
2023/12/25 00:14:00;;;;;;;18.90;8.90;;;;;;;;;;5051450;28;20035;-56
2023/12/25 00:16:26;;;;;;;16.52;7.68;;;;;;;;;;5053193;28;20043;-52
2023/12/25 00:18:51;;;;;;;17.42;7.65;;;;;;;;;;5051809;28;20751;-55
2023/12/25 00:21:17;;;;;;;12.98;7.30;;;;;;;;;;5051777;28;20044;-51
2023/12/25 00:23:42;;;;;;;15.43;7.18;;;;;;;;;;5062486;28;20420;-54
2023/12/25 00:26:08;;;;;;;20.90;7.68;;;;;;;;;;5051053;28;20032;-51
2023/12/25 00:28:33;;;;;;;19.30;6.78;;;;;;;;;;5055422;28;20791;-52
2023/12/25 00:30:58;;;;;;;13.05;6.70;;;;;;;;;;5051991;28;20028;-53
2023/12/25 00:33:23;;;;;;;19.98;7.80;;;;;;;;;;5052692;28;20416;-51
2023/12/25 00:35:49;;;;;;;15.30;7.60;;;;;;;;;;5054087;28;20661;-53
2023/12/25 00:38:14;;;;;;;17.30;8.30;;;;;;;;;;5055905;28;20051;-55
2023/12/25 00:40:39;;;;;;;20.55;6.65;;;;;;;;;;5050200;28;20032;-53
2023/12/25 00:43:05;;;;;;;18.17;7.13;;;;;;;;;;5050860;28;20024;-52
2023/12/25 00:45:30;;;;;;;16.98;6.80;;;;;;;;;;5064313;28;20028;-54
2023/12/25 00:47:55;;;;;;;16.30;7.72;;;;;;;;;;5016388;28;20122;-53
2023/12/25 00:50:20;;;;;;;13.52;6.70;;;;;;;;;;5050677;28;20024;-53
2023/12/25 00:52:46;;;;;;;15.50;7.43;;;;;;;;;;5054492;28;20032;-52
2023/12/25 00:55:11;;;;;;;20.00;7.07;;;;;;;;;;5051807;28;20025;-53
2023/12/25 00:57:36;;;;;;;19.10;7.97;;;;;;;;;;5052280;28;20032;-50
2023/12/25 01:00:02;;;;;;;19.67;7.85;;;;;;;;;;5051161;28;20066;-55
2023/12/25 01:02:27;;;;;;;17.17;7.88;;;;;;;;;;5036361;28;20131;-53
2023/12/25 01:04:53;;;;;;;16.40;7.80;;;;;;;;;;5050533;28;20031;-53
2023/12/25 01:07:18;;;;;;;21.35;7.93;;;;;;;;;;5052502;28;20051;-53
2023/12/25 01:09:43;;;;;;;18.88;7.60;;;;;;;;;;5050565;28;21020;-55
2023/12/25 01:12:09;;;;;;;18.67;8.23;;;;;;;;;;5051296;28;20056;-55
2023/12/25 01:14:34;;;;;;;18.13;7.78;;;;;;;;;;5050546;28;20028;-54
2023/12/25 01:17:00;;;;;;;20.65;8.07;;;;;;;;;;5051715;28;20075;-51
2023/12/25 01:19:25;;;;;;;14.93;7.75;;;;;;;;;;5049349;28;21854;-51
2023/12/25 01:21:50;;;;;;;18.45;7.75;;;;;;;;;;5061662;28;20759;-54
2023/12/25 01:24:16;;;;;;;18.73;8.38;;;;;;;;;;5050423;28;20034;-49
2023/12/25 01:26:41;;;;;;;17.80;8.90;;;;;;;;;;5051708;28;20500;-51
2023/12/25 01:29:06;;;;;;;18.85;8.20;;;;;;;;;;5050251;28;20027;-55
2023/12/25 01:31:32;;;;;;;19.10;8.68;;;;;;;;;;5050635;28;20039;-53
2023/12/25 01:33:57;;;;;;;19.73;9.05;;;;;;;;;;5049782;28;20024;-49
2023/12/25 01:36:22;;;;;;;16.83;7.97;;;;;;;;;;5050939;28;20206;-53
2023/12/25 01:38:47;;;;;;;21.45;8.75;;;;;;;;;;5049928;28;20031;-54
2023/12/25 01:41:13;;;;;;;20.25;7.75;;;;;;;;;;5050059;28;20033;-53
2023/12/25 01:43:38;;;;;;;22.67;8.85;;;;;;;;;;5052962;28;20035;-53
2023/12/25 01:46:03;;;;;;;19.15;9.38;;;;;;;;;;5056442;28;20040;-55
2023/12/25 01:48:29;;;;;;;18.85;8.52;;;;;;;;;;5052445;28;20111;-50
2023/12/25 01:50:59;;;;;;;20.60;8.88;;;;;;;;;;5050453;28;20024;-52
2023/12/25 01:53:24;;;;;;;21.13;8.90;;;;;;;;;;5039735;28;20302;-53
2023/12/25 01:55:50;;;;;;;21.30;9.38;;;;;;;;;;5049741;28;20059;-54
2023/12/25 01:58:15;;;;;;;18.85;8.43;;;;;;;;;;5055618;28;20471;-50
2023/12/25 02:00:40;;;;;;;22.15;9.63;;;;;;;;;;5050095;28;20502;-51
2023/12/25 02:03:06;;;;;;;20.45;9.43;;;;;;;;;;5052473;28;20028;-53
2023/12/25 02:05:31;;;;;;;24.25;9.25;;;;;;;;;;5050211;28;20490;-53
2023/12/25 02:07:56;;;;;;;18.77;9.25;;;;;;;;;;5050302;28;20028;-53
2023/12/25 02:10:26;;;;;;;15.57;8.80;;;;;;;;;;5050352;28;20039;-53
2023/12/25 02:12:51;;;;;;;;;;;;;;;;;;5035980;28;20024;-53
2023/12/25 02:15:16;;;;;;;19.90;8.50;;;;;;;;;;5030249;28;19952;-52
2023/12/25 02:17:41;;;;;;;21.83;8.65;;;;;;;;;;5051858;28;20024;-51
2023/12/25 02:20:07;;;;;;;19.73;9.00;;;;;;;;;;5048857;28;20505;-54
2023/12/25 02:22:33;;;;;;;22.02;10.05;;;;;;;;;;5060679;28;20726;-53
2023/12/25 02:25:05;;;;;;;21.17;8.70;;;;;;;;;;5048996;28;20029;-50
2023/12/25 02:27:30;;;;;;;32.90;10.45;;;;;;;;;;5053349;28;20032;-51
2023/12/25 02:29:56;;;;;;;24.27;9.68;;;;;;;;;;5049763;28;20025;-52
2023/12/25 02:32:21;;;;;;;22.05;10.13;;;;;;;;;;5050942;28;21904;-55
2023/12/25 02:34:47;;;;;;;25.73;12.13;;;;;;;;;;5050708;28;20085;-53
2023/12/25 02:37:13;;;;;;;30.38;14.63;;;;;;;;;;5060098;28;20024;-51
2023/12/25 02:39:38;;;;;;;36.00;15.57;;;;;;;;;;5048859;28;20033;-54
2023/12/25 02:42:04;;;;;;;33.13;15.43;;;;;;;;;;5049641;28;20043;-56
2023/12/25 02:44:29;;;;;;;38.85;16.98;;;;;;;;;;5051573;28;20021;-55
2023/12/25 02:46:54;;;;;;;27.05;12.55;;;;;;;;;;5013876;28;20056;-53
2023/12/25 02:49:19;;;;;;;27.50;10.85;;;;;;;;;;5053552;28;20580;-55
2023/12/25 02:51:45;;;;;;;23.02;10.15;;;;;;;;;;5055214;28;20086;-49
2023/12/25 02:54:10;;;;;;;18.40;9.02;;;;;;;;;;5053015;28;20033;-51
2023/12/25 02:56:35;;;;;;;24.23;10.15;;;;;;;;;;5036205;28;20514;-55
2023/12/25 02:59:00;;;;;;;21.67;10.10;;;;;;;;;;5052853;28;20058;-54
2023/12/25 03:01:26;;;;;;;20.33;10.35;;;;;;;;;;5055554;28;20498;-54
2023/12/25 03:03:51;;;;;;;20.63;9.95;;;;;;;;;;5021254;28;20032;-53
2023/12/25 03:06:16;;;;;;;22.67;10.68;;;;;;;;;;5053554;28;20452;-53
2023/12/25 03:08:42;;;;;;;27.77;11.05;;;;;;;;;;5053868;28;20162;-55
2023/12/25 03:11:07;;;;;;;25.20;10.93;;;;;;;;;;5052176;28;20482;-52
2023/12/25 03:13:32;;;;;;;20.02;10.07;;;;;;;;;;5055528;28;20099;-53
2023/12/25 03:15:57;;;;;;;23.10;9.13;;;;;;;;;;5052464;28;20032;-56
2023/12/25 03:18:23;;;;;;;26.38;9.75;;;;;;;;;;5055908;28;20638;-55
2023/12/25 03:20:48;;;;;;;17.40;8.98;;;;;;;;;;5055926;28;20440;-48
2023/12/25 03:23:13;;;;;;;25.20;10.18;;;;;;;;;;5057758;28;20028;-57
2023/12/25 03:25:38;;;;;;;21.95;9.93;;;;;;;;;;5052777;28;20036;-53
2023/12/25 03:28:04;;;;;;;18.83;9.85;;;;;;;;;;5053424;28;20043;-53
2023/12/25 03:30:29;;;;;;;19.00;10.25;;;;;;;;;;5038155;28;20031;-50
2023/12/25 03:32:54;;;;;;;26.25;10.77;;;;;;;;;;5054147;28;20471;-53
2023/12/25 03:35:20;;;;;;;24.58;9.60;;;;;;;;;;5053510;28;20035;-52
2023/12/25 03:37:46;;;;;;;21.67;9.60;;;;;;;;;;5054178;28;20032;-50
2023/12/25 03:40:11;;;;;;;24.13;10.23;;;;;;;;;;5053416;28;20672;-52
2023/12/25 03:42:37;;;;;;;22.92;10.15;;;;;;;;;;5054395;28;20316;-50
2023/12/25 03:45:02;;;;;;;23.35;9.77;;;;;;;;;;5054941;28;20052;-51
2023/12/25 03:47:28;;;;;;;18.65;9.70;;;;;;;;;;5057197;28;20139;-51
2023/12/25 03:49:54;;;;;;;18.75;9.50;;;;;;;;;;5053206;28;20024;-55
2023/12/25 03:52:19;;;;;;;22.15;10.20;;;;;;;;;;5056420;28;20055;-51
2023/12/25 03:54:44;;;;;;;24.05;11.15;;;;;;;;;;5002124;28;20040;-54
2023/12/25 03:57:10;;;;;;;23.92;10.88;;;;;;;;;;5054608;28;20051;-53
2023/12/25 03:59:36;;;;;;;22.55;10.88;;;;;;;;;;5053198;28;20526;-52
2023/12/25 04:02:01;;;;;;;17.75;10.43;;;;;;;;;;5053322;28;20031;-55
2023/12/25 04:04:27;;;;;;;31.02;11.48;;;;;;;;;;5052547;28;20123;-55
2023/12/25 04:06:52;;;;;;;25.75;11.10;;;;;;;;;;5054579;28;20032;-51
2023/12/25 04:09:17;;;;;;;30.00;11.43;;;;;;;;;;5002271;28;20497;-55
2023/12/25 04:11:42;;;;;;;22.75;11.02;;;;;;;;;;5051877;28;20774;-51
2023/12/25 04:14:08;;;;;;;33.78;12.18;;;;;;;;;;5051352;28;20028;-53
2023/12/25 04:16:33;;;;;;;27.27;11.50;;;;;;;;;;5053860;28;20687;-52
2023/12/25 04:18:58;;;;;;;24.63;11.63;;;;;;;;;;5051154;28;20040;-53
2023/12/25 04:21:24;;;;;;;25.73;11.20;;;;;;;;;;5065069;28;20031;-54
2023/12/25 04:23:50;;;;;;;30.77;11.65;;;;;;;;;;5050094;28;20118;-53
2023/12/25 04:26:16;;;;;;;28.13;11.65;;;;;;;;;;5051060;28;20032;-54
2023/12/25 04:28:41;;;;;;;30.20;12.60;;;;;;;;;;5054456;28;20040;-54
2023/12/25 04:31:06;;;;;;;25.05;11.10;;;;;;;;;;5052460;28;20124;-55
2023/12/25 04:33:31;;;;;;;28.38;10.95;;;;;;;;;;5054047;28;20032;-54
2023/12/25 04:35:57;;;;;;;26.23;12.05;;;;;;;;;;5052721;28;20028;-51
2023/12/25 04:38:22;;;;;;;30.58;13.68;;;;;;;;;;5052194;28;20032;-54
2023/12/25 04:40:49;;;;;;;31.08;11.25;;;;;;;;;;4994990;28;20248;-54
2023/12/25 04:43:15;;;;;;;29.48;12.23;;;;;;;;;;5057727;28;20548;-54
2023/12/25 04:45:40;;;;;;;30.25;13.70;;;;;;;;;;5059519;28;20036;-52
2023/12/25 04:48:05;;;;;;;60.75;22.30;;;;;;;;;;5036046;28;20188;-52
2023/12/25 04:50:31;;;;;;;91.20;38.40;;;;;;;;;;5049934;28;20127;-55
2023/12/25 04:52:56;;;;;;;108.60;47.25;;;;;;;;;;5051663;28;20082;-54
2023/12/25 04:55:21;;;;;;;49.67;29.65;;;;;;;;;;5049974;28;20021;-53
2023/12/25 04:57:46;;;;;;;65.53;40.75;;;;;;;;;;5052043;28;20043;-52
2023/12/25 05:00:12;;;;;;;41.58;23.45;;;;;;;;;;5038620;28;20078;-54
2023/12/25 05:02:37;;;;;;;37.38;23.70;;;;;;;;;;5022907;28;20398;-53
2023/12/25 05:05:03;;;;;;;42.95;23.98;;;;;;;;;;5050928;28;20032;-53
2023/12/25 05:07:28;;;;;;;42.30;18.27;;;;;;;;;;5052247;28;20119;-53
2023/12/25 05:09:54;;;;;;;42.53;17.17;;;;;;;;;;5050282;28;20042;-54
2023/12/25 05:12:19;;;;;;;65.78;24.55;;;;;;;;;;5051261;28;20040;-52
2023/12/25 05:14:45;;;;;;;48.55;19.35;;;;;;;;;;5052215;28;20495;-53
2023/12/25 05:17:10;;;;;;;80.45;32.97;;;;;;;;;;5051088;28;20029;-54
2023/12/25 05:19:36;;;;;;;102.88;38.13;;;;;;;;;;5049988;28;20043;-54
2023/12/25 05:22:04;;;;;;;55.65;24.63;;;;;;;;;;5063176;28;20044;-55
2023/12/25 05:24:29;;;;;;;115.85;37.10;;;;;;;;;;5050766;28;20123;-55
2023/12/25 05:26:55;;;;;;;56.13;21.42;;;;;;;;;;5051840;28;20036;-51
2023/12/25 05:29:20;;;;;;;69.57;24.20;;;;;;;;;;5050190;28;20033;-52
2023/12/25 05:31:46;;;;;;;89.88;27.42;;;;;;;;;;5051209;28;22100;-53
2023/12/25 05:34:11;;;;;;;49.72;18.15;;;;;;;;;;5051355;28;20048;-53
2023/12/25 05:36:36;;;;;;;71.30;26.77;;;;;;;;;;5055371;28;20028;-53
2023/12/25 05:39:02;;;;;;;29.20;14.13;;;;;;;;;;5065959;28;20118;-50
2023/12/25 05:41:28;;;;;;;29.50;12.77;;;;;;;;;;5052186;28;20075;-55
2023/12/25 05:43:53;;;;;;;24.80;12.35;;;;;;;;;;5052429;28;20762;-54
2023/12/25 05:46:19;;;;;;;36.08;15.30;;;;;;;;;;5060818;28;20155;-54
2023/12/25 05:48:44;;;;;;;27.52;12.45;;;;;;;;;;5051683;28;20035;-53
2023/12/25 05:51:09;;;;;;;50.38;16.55;;;;;;;;;;5050408;28;21999;-53
2023/12/25 05:53:34;;;;;;;30.80;13.35;;;;;;;;;;5052744;28;20028;-51
2023/12/25 05:56:00;;;;;;;26.58;13.55;;;;;;;;;;5049987;28;20035;-54
2023/12/25 05:58:25;;;;;;;27.40;12.63;;;;;;;;;;5052310;28;20359;-53
2023/12/25 06:00:50;;;;;;;38.53;15.88;;;;;;;;;;5048709;28;20702;-55
2023/12/25 06:03:15;;;;;;;39.00;15.10;;;;;;;;;;5051797;28;20031;-52
2023/12/25 06:05:41;;;;;;;41.85;15.68;;;;;;;;;;5051238;28;20354;-53
2023/12/25 06:08:06;;;;;;;35.85;13.70;;;;;;;;;;5053263;28;20478;-52
2023/12/25 06:10:31;;;;;;;40.70;16.58;;;;;;;;;;5049788;28;20039;-52
2023/12/25 06:12:57;;;;;;;38.28;14.20;;;;;;;;;;5049616;28;20440;-54
2023/12/25 06:15:22;;;;;;;39.92;16.52;;;;;;;;;;5049906;28;20061;-55
2023/12/25 06:17:47;;;;;;;35.92;13.23;;;;;;;;;;5014969;28;20589;-51
2023/12/25 06:20:12;;;;;;;35.72;14.43;;;;;;;;;;5062972;28;20259;-55
2023/12/25 06:22:38;;;;;;;33.60;14.43;;;;;;;;;;5057064;28;20024;-56
2023/12/25 06:25:04;;;;;;;32.67;14.15;;;;;;;;;;5053035;28;20050;-56
2023/12/25 06:27:29;;;;;;;35.10;12.98;;;;;;;;;;5053571;28;20035;-53
2023/12/25 06:29:54;;;;;;;31.00;13.55;;;;;;;;;;5055895;28;20036;-54
2023/12/25 06:32:20;;;;;;;29.48;13.80;;;;;;;;;;5055174;28;20496;-54
2023/12/25 06:34:45;;;;;;;30.58;13.63;;;;;;;;;;5054491;28;20040;-54
2023/12/25 06:37:10;;;;;;;26.85;11.93;;;;;;;;;;5066592;28;20402;-51
2023/12/25 06:39:35;;;;;;;28.05;12.75;;;;;;;;;;5053127;28;20047;-53
2023/12/25 06:42:01;;;;;;;33.30;13.15;;;;;;;;;;5054203;28;20713;-55
2023/12/25 06:44:26;;;;;;;24.77;12.10;;;;;;;;;;5053674;28;20059;-55
2023/12/25 06:46:51;;;;;;;25.85;10.90;;;;;;;;;;5060871;28;20501;-56
2023/12/25 06:49:17;;;;;;;29.08;11.75;;;;;;;;;;5052901;28;20036;-55
2023/12/25 06:51:43;;;;;;;26.48;11.25;;;;;;;;;;5056741;28;20032;-55
2023/12/25 06:54:09;;;;;;;29.50;11.45;;;;;;;;;;5051795;28;20111;-54
2023/12/25 06:56:34;;;;;;;22.60;11.57;;;;;;;;;;5055045;28;20036;-53
2023/12/25 06:58:59;;;;;;;24.83;11.57;;;;;;;;;;5053474;28;20721;-51
2023/12/25 07:01:24;;;;;;;27.60;13.45;;;;;;;;;;5054540;28;20581;-53
2023/12/25 07:03:50;;;;;;;35.47;15.30;;;;;;;;;;5053309;28;20449;-55
2023/12/25 07:06:15;;;;;;;40.85;15.38;;;;;;;;;;5038806;28;20106;-53
2023/12/25 07:08:40;;;;;;;48.67;17.15;;;;;;;;;;5054381;28;20376;-55
2023/12/25 07:11:06;;;;;;;52.17;17.52;;;;;;;;;;5053277;28;20024;-55
2023/12/25 07:13:33;;;;;;;55.88;20.02;;;;;;;;;;5056472;28;20149;-53
2023/12/25 07:16:00;;;;;;;84.18;29.35;;;;;;;;;;5052395;28;20043;-54
2023/12/25 07:18:25;;;;;;;67.97;23.50;;;;;;;;;;5054511;28;20028;-54
2023/12/25 07:20:51;;;;;;;62.38;23.05;;;;;;;;;;5066300;28;20086;-55
2023/12/25 07:23:18;;;;;;;61.00;21.35;;;;;;;;;;5055081;28;20024;-52
2023/12/25 07:25:44;;;;;;;37.15;15.35;;;;;;;;;;5052588;28;20039;-54
2023/12/25 07:28:10;;;;;;;39.28;15.75;;;;;;;;;;5054747;28;20483;-55
2023/12/25 07:30:35;;;;;;;35.72;13.95;;;;;;;;;;5053002;28;20516;-54
2023/12/25 07:33:01;;;;;;;37.55;14.70;;;;;;;;;;5054813;28;20666;-56
2023/12/25 07:35:26;;;;;;;28.73;13.55;;;;;;;;;;5053382;28;20028;-56
2023/12/25 07:37:52;;;;;;;31.92;12.73;;;;;;;;;;5053274;28;20182;-54
2023/12/25 07:40:17;;;;;;;21.75;9.93;;;;;;;;;;5053392;28;20033;-53
2023/12/25 07:42:43;;;;;;;35.78;11.98;;;;;;;;;;5054438;28;20074;-52
2023/12/25 07:45:11;;;;;;;28.77;10.95;;;;;;;;;;5056664;28;20028;-53
2023/12/25 07:47:36;;;;;;;32.08;13.10;;;;;;;;;;5036782;28;20048;-53
2023/12/25 07:50:03;;;;;;;35.92;15.20;;;;;;;;;;5053654;28;20685;-52
2023/12/25 07:52:28;;;;;;;37.90;14.10;;;;;;;;;;5055947;28;21557;-53
2023/12/25 07:54:55;;;;;;;44.25;14.32;;;;;;;;;;5002617;28;20450;-54
2023/12/25 07:57:21;;;;;;;33.90;13.13;;;;;;;;;;5053277;28;20029;-55
2023/12/25 07:59:47;;;;;;;31.15;11.95;;;;;;;;;;5038470;28;20032;-54
2023/12/25 08:02:13;;;;;;;36.15;11.57;;;;;;;;;;5053932;28;20032;-52
2023/12/25 08:04:38;;;;;;;32.30;12.32;;;;;;;;;;5052230;28;20521;-54
2023/12/25 08:07:03;;;;;;;21.08;10.57;;;;;;;;;;5054395;28;20028;-55
2023/12/25 08:09:29;;;;;;;28.85;11.02;;;;;;;;;;5052031;28;20889;-52
2023/12/25 08:11:54;;;;;;;31.35;10.73;;;;;;;;;;5055870;28;20028;-53
2023/12/25 08:14:19;;;;;;;29.05;10.80;;;;;;;;;;5052829;28;20063;-53
2023/12/25 08:16:44;;;;;;;26.48;10.93;;;;;;;;;;5053100;28;20032;-52
2023/12/25 08:19:10;;;;;;;37.67;13.48;;;;;;;;;;5053079;28;20032;-53
2023/12/25 08:21:35;;;;;;;27.80;12.10;;;;;;;;;;5054766;28;20047;-51
2023/12/25 08:24:00;;;;;;;36.90;17.15;;;;;;;;;;5050592;28;20013;-54
2023/12/25 08:26:26;;;;;;;48.00;19.58;;;;;;;;;;5063998;28;20029;-53
2023/12/25 08:28:52;;;;;;;19.33;9.52;;;;;;;;;;5053148;28;20028;-53
2023/12/25 08:31:17;;;;;;;25.30;10.52;;;;;;;;;;5051962;28;20043;-53
2023/12/25 08:33:43;;;;;;;24.23;9.48;;;;;;;;;;5053134;28;20526;-52
2023/12/25 08:36:08;;;;;;;26.05;8.73;;;;;;;;;;5054493;28;20119;-54
2023/12/25 08:38:35;;;;;;;23.90;8.25;;;;;;;;;;5052585;28;20036;-53
2023/12/25 08:41:00;;;;;;;22.88;7.75;;;;;;;;;;5058644;28;20020;-55
2023/12/25 08:43:26;;;;;;;24.42;7.50;;;;;;;;;;5037953;28;20038;-53
2023/12/25 08:45:51;;;;;;;21.13;7.70;;;;;;;;;;5055422;28;20686;-54
2023/12/25 08:48:16;;;;;;;17.63;7.55;;;;;;;;;;5052422;28;20467;-54
2023/12/25 08:50:42;;;;;;;19.27;8.88;;;;;;;;;;5051106;28;20749;-54
2023/12/25 08:53:08;;;;;;;25.88;8.93;;;;;;;;;;5053008;28;20082;-54
2023/12/25 08:55:33;;;;;;;19.05;8.35;;;;;;;;;;5049757;28;22768;-55
2023/12/25 08:57:59;;;;;;;25.73;9.57;;;;;;;;;;5052409;28;21741;-55
2023/12/25 09:00:24;;;;;;;23.25;9.32;;;;;;;;;;5051984;28;20041;-53
2023/12/25 09:02:50;;;;;;;18.42;8.07;;;;;;;;;;5052548;28;20171;-54
2023/12/25 09:05:15;;;;;;;27.05;8.50;;;;;;;;;;5050162;28;20122;-51
2023/12/25 09:07:40;;;;;;;20.20;7.97;;;;;;;;;;5052351;28;20394;-52
2023/12/25 09:10:06;;;;;;;22.77;7.70;;;;;;;;;;5049660;28;20509;-54
2023/12/25 09:12:32;;;;;;;22.17;8.60;;;;;;;;;;5053301;28;20032;-52
2023/12/25 09:14:57;;;;;;;18.23;7.30;;;;;;;;;;5050597;28;20028;-56
2023/12/25 09:17:23;;;;;;;22.50;7.97;;;;;;;;;;5054382;28;20017;-53
2023/12/25 09:19:48;;;;;;;23.02;9.23;;;;;;;;;;5051178;28;20040;-52
2023/12/25 09:22:13;;;;;;;29.45;12.90;;;;;;;;;;5060315;28;20028;-55
2023/12/25 09:24:40;;;;;;;39.75;15.30;;;;;;;;;;5051033;28;20047;-55
2023/12/25 09:27:06;;;;;;;36.72;13.32;;;;;;;;;;5051324;28;20184;-55
2023/12/25 09:29:31;;;;;;;35.38;14.05;;;;;;;;;;5053045;28;20043;-56
2023/12/25 09:31:56;;;;;;;39.35;14.52;;;;;;;;;;5052521;28;20591;-54
2023/12/25 09:34:21;;;;;;;23.30;8.50;;;;;;;;;;5052673;28;20074;-53
2023/12/25 09:36:47;;;;;;;29.38;10.25;;;;;;;;;;5051271;28;20486;-54
2023/12/25 09:39:12;;;;;;;21.58;7.85;;;;;;;;;;5050681;28;20033;-54
2023/12/25 09:41:38;;;;;;;23.40;8.18;;;;;;;;;;5052288;28;20052;-54
2023/12/25 09:44:04;;;;;;;17.77;7.18;;;;;;;;;;5050508;28;20099;-53
2023/12/25 09:46:30;;;;;;;22.98;8.25;;;;;;;;;;5060012;28;20056;-55
2023/12/25 09:48:57;;;;;;;24.95;7.78;;;;;;;;;;5051679;28;20495;-55
2023/12/25 09:51:22;;;;;;;21.02;9.43;;;;;;;;;;5050609;28;20037;-56
2023/12/25 09:53:47;;;;;;;24.63;8.07;;;;;;;;;;5051179;28;20025;-56
2023/12/25 09:56:15;;;;;;;17.10;7.28;;;;;;;;;;5033062;28;20432;-55
2023/12/25 09:58:40;;;;;;;18.05;8.27;;;;;;;;;;5051565;28;20090;-55
2023/12/25 10:01:06;;;;;;;23.92;8.10;;;;;;;;;;5049182;28;20054;-55
2023/12/25 10:03:33;;;;;;;20.20;7.72;;;;;;;;;;5053508;28;20035;-53
2023/12/25 10:05:58;;;;;;;16.45;6.57;;;;;;;;;;5051651;28;20016;-52
2023/12/25 10:08:24;;;;;;;14.63;6.60;;;;;;;;;;5052501;28;20020;-53
2023/12/25 10:10:53;;;;;;;17.88;6.28;;;;;;;;;;5052214;28;20074;-55
2023/12/25 10:13:18;;;;;;;18.50;6.15;;;;;;;;;;5051299;28;20028;-53
2023/12/25 10:15:43;;;;;;;15.02;6.65;;;;;;;;;;5049670;28;20039;-51
2023/12/25 10:18:08;;;;;;;19.88;6.70;;;;;;;;;;5051971;28;20107;-51
2023/12/25 10:20:34;;;;;;;11.85;5.40;;;;;;;;;;5051104;28;20452;-55
2023/12/25 10:23:00;;;;;;;21.73;6.60;;;;;;;;;;5059014;28;20110;-55
2023/12/25 10:25:28;;;;;;;14.40;5.60;;;;;;;;;;5051182;28;20366;-55
2023/12/25 10:27:53;;;;;;;19.20;7.28;;;;;;;;;;5053374;28;20028;-51
2023/12/25 10:30:20;;;;;;;26.92;7.60;;;;;;;;;;5033160;28;20067;-56
2023/12/25 10:32:47;;;;;;;24.38;7.18;;;;;;;;;;5052772;28;20140;-53
2023/12/25 10:35:13;;;;;;;24.75;7.13;;;;;;;;;;5048604;28;20036;-55
2023/12/25 10:37:40;;;;;;;19.00;6.95;;;;;;;;;;5061066;28;20031;-55
2023/12/25 10:40:25;;;;;;;23.05;7.88;;;;;;;;;;5050844;28;20213;-56
2023/12/25 10:42:52;;;;;;;22.85;7.95;;;;;;;;;;5052645;28;20063;-56
2023/12/25 10:45:22;;;;;;;26.55;9.07;;;;;;;;;;5056594;28;20021;-54
2023/12/25 10:48:03;;;;;;;24.50;9.68;;;;;;;;;;5052501;28;20064;-51
2023/12/25 10:50:30;;;;;;;23.98;7.60;;;;;;;;;;5049488;28;20079;-54
2023/12/25 10:52:59;;;;;;;20.67;7.57;;;;;;;;;;5050948;28;21660;-54
2023/12/25 10:55:37;;;;;;;22.33;6.55;;;;;;;;;;5036267;28;20024;-53
2023/12/25 10:58:08;;;;;;;19.58;7.38;;;;;;;;;;5051032;28;20032;-53
2023/12/25 11:00:39;;;;;;;25.08;7.93;;;;;;;;;;5050040;28;20032;-54
2023/12/25 11:03:05;;;;;;;20.45;7.90;;;;;;;;;;5051691;28;20028;-54
2023/12/25 11:05:33;;;;;;;28.30;8.70;;;;;;;;;;5053445;28;20031;-54
2023/12/25 11:07:58;;;;;;;28.33;9.65;;;;;;;;;;5053725;28;20086;-50
2023/12/25 11:10:27;;;;;;;43.20;14.65;;;;;;;;;;5053373;28;20835;-54
2023/12/25 11:12:53;;;;;;;38.17;14.52;;;;;;;;;;5054778;28;20119;-55
2023/12/25 11:15:18;;;;;;;32.38;11.75;;;;;;;;;;5052016;28;22136;-53
2023/12/25 11:17:44;;;;;;;28.95;9.77;;;;;;;;;;5056327;28;20036;-54
2023/12/25 11:20:10;;;;;;;25.45;9.27;;;;;;;;;;5054379;28;20535;-53
2023/12/25 11:22:36;;;;;;;27.13;9.77;;;;;;;;;;5062622;28;20036;-52
2023/12/25 11:25:03;;;;;;;24.00;7.07;;;;;;;;;;5051127;28;20106;-56
2023/12/25 11:27:31;;;;;;;21.23;7.60;;;;;;;;;;5055418;28;20032;-54
2023/12/25 11:30:00;;;;;;;22.15;6.90;;;;;;;;;;5053021;28;20028;-53
2023/12/25 11:32:26;;;;;;;22.27;7.38;;;;;;;;;;5054473;28;20115;-54
2023/12/25 11:34:52;;;;;;;26.05;7.00;;;;;;;;;;5052778;28;20033;-52
2023/12/25 11:37:19;;;;;;;26.80;8.95;;;;;;;;;;5054525;28;20047;-55
2023/12/25 11:39:52;;;;;;;24.00;8.57;;;;;;;;;;5052014;28;20035;-53
2023/12/25 11:42:17;;;;;;;23.33;9.43;;;;;;;;;;5053843;28;20047;-54
2023/12/25 11:44:43;;;;;;;25.08;8.60;;;;;;;;;;5053700;28;20565;-56
2023/12/25 11:47:08;;;;;;;19.17;8.30;;;;;;;;;;5060975;28;20048;-53
2023/12/25 11:49:36;;;;;;;17.27;6.68;;;;;;;;;;5053037;28;20040;-53
2023/12/25 11:52:01;;;;;;;17.92;5.13;;;;;;;;;;5056057;28;20518;-55
2023/12/25 11:54:33;;;;;;;23.17;5.85;;;;;;;;;;5052488;28;20398;-55
2023/12/25 11:57:02;;;;;;;17.75;6.03;;;;;;;;;;5056683;28;21101;-53
2023/12/25 11:59:28;;;;;;;;;;;;;;;;;;5052794;28;20904;-56
2023/12/25 12:01:54;;;;;;;19.83;7.25;;;;;;;;;;5054014;28;20681;-54
2023/12/25 12:04:19;;;;;;;18.15;6.22;;;;;;;;;;5053134;28;20016;-55
2023/12/25 12:06:44;;;;;;;23.23;5.55;;;;;;;;;;5053039;28;22105;-54
2023/12/25 12:09:10;;;;;;;18.23;5.90;;;;;;;;;;5052392;28;20029;-52
2023/12/25 12:11:35;;;;;;;16.17;5.63;;;;;;;;;;5052831;28;20020;-54
2023/12/25 12:14:02;;;;;;;14.57;5.88;;;;;;;;;;5052549;28;20028;-57
2023/12/25 12:16:27;;;;;;;21.10;7.40;;;;;;;;;;5052103;28;20020;-53
2023/12/25 12:18:53;;;;;;;24.20;7.47;;;;;;;;;;5053552;28;20028;-55
2023/12/25 12:21:18;;;;;;;22.65;5.82;;;;;;;;;;5053422;28;20043;-52
2023/12/25 12:23:43;;;;;;;18.95;6.13;;;;;;;;;;5052590;28;20036;-53
2023/12/25 12:26:18;;;;;;;15.43;5.97;;;;;;;;;;5052362;28;20731;-53
2023/12/25 12:28:45;;;;;;;19.33;6.00;;;;;;;;;;5067184;28;20036;-54
2023/12/25 12:31:11;;;;;;;18.38;6.25;;;;;;;;;;5052489;28;20529;-54
2023/12/25 12:33:36;;;;;;;13.88;5.60;;;;;;;;;;5054034;28;20466;-52
2023/12/25 12:36:02;;;;;;;19.83;6.68;;;;;;;;;;5019586;28;20046;-54
2023/12/25 12:38:27;;;;;;;19.58;5.72;;;;;;;;;;5063675;28;20032;-52
2023/12/25 12:40:53;;;;;;;23.92;6.50;;;;;;;;;;5052387;28;20621;-54
2023/12/25 12:43:18;;;;;;;19.75;6.25;;;;;;;;;;5053069;28;20035;-55
2023/12/25 12:45:44;;;;;;;26.10;7.15;;;;;;;;;;5058716;28;20020;-56
2023/12/25 12:48:10;;;;;;;24.10;8.13;;;;;;;;;;5054681;28;20064;-55
2023/12/25 12:50:35;;;;;;;16.10;5.37;;;;;;;;;;5036597;28;20131;-55
2023/12/25 12:53:01;;;;;;;19.08;6.05;;;;;;;;;;5036955;28;20264;-55
2023/12/25 12:55:26;;;;;;;19.65;5.43;;;;;;;;;;5050987;28;20033;-56
2023/12/25 12:57:52;;;;;;;27.42;6.68;;;;;;;;;;5055541;28;20035;-55
2023/12/25 13:00:17;;;;;;;17.45;6.60;;;;;;;;;;5051312;28;20519;-54
2023/12/25 13:02:42;;;;;;;25.83;6.53;;;;;;;;;;5054072;28;20035;-55
2023/12/25 13:05:07;;;;;;;18.23;5.72;;;;;;;;;;5049720;28;20572;-50
2023/12/25 13:07:33;;;;;;;18.05;6.00;;;;;;;;;;5051857;28;20028;-54
2023/12/25 13:09:58;;;;;;;19.98;6.25;;;;;;;;;;5049892;28;20032;-55
2023/12/25 13:12:24;;;;;;;19.90;6.22;;;;;;;;;;5053132;28;20032;-57
2023/12/25 13:14:51;;;;;;;19.58;6.38;;;;;;;;;;5052063;28;20063;-55
2023/12/25 13:17:16;;;;;;;21.10;6.35;;;;;;;;;;5052332;28;20107;-50
2023/12/25 13:19:41;;;;;;;22.80;5.30;;;;;;;;;;5050703;28;20024;-55
2023/12/25 13:22:07;;;;;;;14.55;5.60;;;;;;;;;;5032305;28;20159;-54
2023/12/25 13:24:32;;;;;;;16.98;5.40;;;;;;;;;;5054718;28;22556;-54
2023/12/25 13:27:03;;;;;;;13.13;5.43;;;;;;;;;;5051131;28;20529;-54
2023/12/25 13:29:28;;;;;;;22.05;6.70;;;;;;;;;;5052369;28;20151;-56
2023/12/25 13:31:53;;;;;;;21.23;6.57;;;;;;;;;;5053048;28;20096;-56
2023/12/25 13:34:18;;;;;;;14.93;6.03;;;;;;;;;;5050117;28;20083;-53
2023/12/25 13:36:44;;;;;;;18.58;6.60;;;;;;;;;;5052197;28;20040;-59
2023/12/25 13:39:09;;;;;;;18.35;8.63;;;;;;;;;;5036403;28;20033;-53
2023/12/25 13:41:34;;;;;;;17.38;6.10;;;;;;;;;;5050128;28;20475;-53
2023/12/25 13:44:00;;;;;;;21.23;6.43;;;;;;;;;;5050406;28;20036;-55
2023/12/25 13:46:25;;;;;;;18.98;6.45;;;;;;;;;;5039112;28;20048;-53
2023/12/25 13:48:52;;;;;;;18.23;6.10;;;;;;;;;;5016260;28;20036;-53
2023/12/25 13:51:17;;;;;;;23.52;7.13;;;;;;;;;;5050470;28;20114;-57
2023/12/25 13:53:42;;;;;;;25.08;6.85;;;;;;;;;;5051530;28;20073;-56
2023/12/25 13:56:08;;;;;;;24.08;8.25;;;;;;;;;;5054490;28;20056;-56
2023/12/25 13:58:33;;;;;;;21.42;6.05;;;;;;;;;;5051240;28;20516;-56
2023/12/25 14:00:58;;;;;;;19.13;5.82;;;;;;;;;;5050687;28;20035;-55
2023/12/25 14:03:23;;;;;;;14.32;5.93;;;;;;;;;;5052656;28;20044;-53
2023/12/25 14:05:49;;;;;;;22.55;5.95;;;;;;;;;;5054674;28;20726;-55
2023/12/25 14:08:14;;;;;;;22.48;5.15;;;;;;;;;;5052111;28;20024;-54
2023/12/25 14:10:39;;;;;;;12.77;5.38;;;;;;;;;;5006909;28;20494;-55
2023/12/25 14:13:04;;;;;;;15.50;5.82;;;;;;;;;;5051953;28;20133;-53
2023/12/25 14:15:30;;;;;;;17.52;4.65;;;;;;;;;;5051023;28;20481;-56
2023/12/25 14:17:55;;;;;;;16.40;5.72;;;;;;;;;;5038043;28;20032;-55